Time;durP1;ratioP1;P1;durP2;ratioP2;P2;SDS_P1;SDS_P2;PMS_P1;PMS_P2;Temp;Humidity;BMP_temperature;BMP_pressure;BME280_temperature;BME280_humidity;BME280_pressure;Samples;Min_cycle;Max_cycle;Signal;HPM_P1;HPM_P2
2023/07/24 00:01:47;;;;;;;10.18;4.15;;;;;;;17.95;88.80;100524.84;6075874;19;20236;-76
2023/07/24 00:03:54;;;;;;;8.65;4.07;;;;;;;17.91;88.58;100523.41;6079088;19;20299;-76
2023/07/24 00:06:02;;;;;;;9.38;3.78;;;;;;;17.91;88.87;100517.25;6077453;19;20482;-74
2023/07/24 00:08:07;;;;;;;8.48;3.67;;;;;;;17.89;89.11;100517.34;6073864;19;20006;-75
2023/07/24 00:10:15;;;;;;;8.80;4.28;;;;;;;17.91;89.13;100507.47;6072336;19;20010;-75
2023/07/24 00:12:20;;;;;;;9.07;3.90;;;;;;;17.86;89.40;100499.00;6069288;19;20293;-74
2023/07/24 00:14:26;;;;;;;9.07;4.00;;;;;;;17.82;89.37;100497.50;6078200;19;20609;-74
2023/07/24 00:16:34;;;;;;;9.90;4.80;;;;;;;17.85;89.37;100502.63;6075373;19;20215;-75
2023/07/24 00:18:40;;;;;;;9.55;4.30;;;;;;;17.77;89.38;100504.97;6073248;19;20014;-74
2023/07/24 00:20:46;;;;;;;8.52;4.85;;;;;;;17.79;89.38;100505.72;6077245;19;20018;-74
2023/07/24 00:22:51;;;;;;;9.98;4.45;;;;;;;17.67;89.88;100511.97;6075939;19;20007;-75
2023/07/24 00:24:55;;;;;;;8.15;3.95;;;;;;;17.71;89.72;100511.59;6074534;19;20019;-74
2023/07/24 00:27:02;;;;;;;8.85;4.47;;;;;;;17.70;89.86;100496.63;6074385;19;20280;-76
2023/07/24 00:29:07;;;;;;;10.10;3.88;;;;;;;17.65;89.71;100489.97;6072499;19;20011;-76
2023/07/24 00:31:13;;;;;;;10.00;3.72;;;;;;;17.69;89.96;100486.09;6075142;19;20014;-76
2023/07/24 00:33:18;;;;;;;8.90;3.53;;;;;;;17.68;89.78;100479.94;6075834;19;20006;-76
2023/07/24 00:35:23;;;;;;;10.07;4.30;;;;;;;17.66;90.13;100478.38;6075742;19;20107;-76
2023/07/24 00:37:26;;;;;;;8.50;4.57;;;;;;;17.71;90.01;100478.84;6071758;19;20278;-75
2023/07/24 00:39:31;;;;;;;8.55;4.18;;;;;;;17.64;89.84;100477.63;6069599;19;20198;-73
2023/07/24 00:41:36;;;;;;;10.38;4.75;;;;;;;17.68;89.57;100476.44;6066326;19;20493;-74
2023/07/24 00:43:44;;;;;;;10.48;4.47;;;;;;;17.65;90.42;100466.06;6067345;19;20073;-72
2023/07/24 00:45:50;;;;;;;9.00;4.22;;;;;;;17.65;90.15;100474.03;6063066;19;20010;-72
2023/07/24 00:47:58;;;;;;;9.18;4.15;;;;;;;17.69;89.92;100478.13;6071321;19;20457;-72
2023/07/24 00:50:03;;;;;;;9.55;4.22;;;;;;;17.73;90.12;100482.25;6070046;19;20017;-72
2023/07/24 00:52:11;;;;;;;10.68;4.70;;;;;;;17.69;90.79;100468.38;6063648;19;20559;-72
2023/07/24 00:54:19;;;;;;;9.88;4.22;;;;;;;17.68;91.04;100469.31;6068109;19;20216;-71
2023/07/24 00:56:24;;;;;;;8.48;4.13;;;;;;;17.66;91.01;100463.25;6070725;19;20652;-73
2023/07/24 00:58:30;;;;;;;9.68;3.95;;;;;;;17.69;90.68;100470.16;6069394;19;20011;-73
2023/07/24 01:00:43;;;;;;;7.90;4.20;;;;;;;17.67;91.26;100466.78;6081420;19;20491;-73
2023/07/24 01:02:49;;;;;;;8.15;4.35;;;;;;;17.68;91.12;100468.47;6085368;19;20018;-72
2023/07/24 01:04:54;;;;;;;8.98;3.80;;;;;;;17.65;91.05;100469.56;6077134;19;20199;-71
2023/07/24 01:07:02;;;;;;;9.32;3.90;;;;;;;17.72;91.18;100470.78;6089411;19;20383;-72
2023/07/24 01:09:07;;;;;;;8.65;4.28;;;;;;;17.71;90.85;100474.38;6080430;19;20028;-74
2023/07/24 01:11:17;;;;;;;9.70;4.25;;;;;;;17.73;90.96;100471.63;6090996;19;20375;-75
2023/07/24 01:13:28;;;;;;;7.78;4.00;;;;;;;17.73;90.61;100475.13;6079624;19;20014;-74
2023/07/24 01:15:37;;;;;;;7.53;4.10;;;;;;;17.68;91.00;100469.31;6084127;19;20006;-74
2023/07/24 01:17:49;;;;;;;9.27;4.38;;;;;;;17.72;90.96;100460.16;6077875;19;20011;-75
2023/07/24 01:19:58;;;;;;;8.80;4.20;;;;;;;17.68;90.99;100455.19;6084573;19;20550;-75
2023/07/24 01:22:12;;;;;;;9.80;4.35;;;;;;;17.69;90.95;100451.53;6079410;19;20414;-74
2023/07/24 01:24:32;;;;;;;10.60;4.75;;;;;;;17.72;90.15;100451.31;6071821;19;20010;-75
2023/07/24 01:26:43;;;;;;;9.02;4.47;;;;;;;17.65;90.14;100448.28;6075333;19;20006;-75
2023/07/24 01:28:48;;;;;;;9.23;4.03;;;;;;;17.64;90.35;100449.25;6052282;19;20310;-75
2023/07/24 01:30:54;;;;;;;9.73;4.28;;;;;;;17.68;90.26;100442.72;6081848;19;20041;-76
2023/07/24 01:32:59;;;;;;;10.88;5.20;;;;;;;17.61;90.48;100446.81;6080117;19;20143;-75
2023/07/24 01:35:04;;;;;;;10.10;5.00;;;;;;;17.64;90.54;100445.72;6081071;19;20010;-74
2023/07/24 01:37:11;;;;;;;12.18;5.25;;;;;;;17.59;90.51;100442.59;6083421;19;20007;-75
2023/07/24 01:39:17;;;;;;;9.88;4.65;;;;;;;17.61;90.84;100448.63;6087656;19;20007;-75
2023/07/24 01:41:23;;;;;;;10.48;4.25;;;;;;;17.60;90.72;100446.94;6083262;19;20197;-74
2023/07/24 01:43:32;;;;;;;12.10;4.82;;;;;;;17.60;89.81;100441.63;6081092;19;20078;-74
2023/07/24 01:45:44;;;;;;;10.32;4.85;;;;;;;17.55;89.09;100436.66;6071092;19;20268;-73
2023/07/24 01:47:49;;;;;;;10.13;5.15;;;;;;;17.56;88.82;100441.00;6081189;19;20015;-74
2023/07/24 01:49:54;;;;;;;10.50;5.53;;;;;;;17.55;88.93;100442.81;6079198;19;20578;-75
2023/07/24 01:52:01;;;;;;;9.93;4.82;;;;;;;17.53;88.94;100439.44;6076497;19;20042;-76
2023/07/24 01:54:06;;;;;;;10.38;5.30;;;;;;;17.51;88.88;100441.38;6072456;19;20006;-75
2023/07/24 01:56:12;;;;;;;11.77;5.55;;;;;;;17.52;89.04;100432.44;6075054;19;20302;-74
2023/07/24 01:58:17;;;;;;;12.25;5.68;;;;;;;17.49;89.06;100430.00;6073385;19;20015;-74
2023/07/24 02:00:25;;;;;;;11.07;5.22;;;;;;;17.44;88.88;100437.47;6068489;19;20007;-76
2023/07/24 02:02:32;;;;;;;10.60;4.47;;;;;;;17.52;88.63;100431.59;6071552;19;20014;-76
2023/07/24 02:04:49;;;;;;;10.82;5.28;;;;;;;17.49;89.13;100434.50;6074299;19;20519;-76
2023/07/24 02:06:54;;;;;;;11.70;5.65;;;;;;;17.53;88.43;100422.66;6073246;19;20195;-76
2023/07/24 02:08:59;;;;;;;14.75;5.28;;;;;;;17.52;87.88;100413.84;6071225;19;20445;-75
2023/07/24 02:11:04;;;;;;;10.75;5.00;;;;;;;17.49;87.97;100398.13;6075107;19;20288;-76
2023/07/24 02:13:10;;;;;;;11.43;5.13;;;;;;;17.45;87.62;100401.97;6074447;19;20034;-73
2023/07/24 02:15:17;;;;;;;10.35;4.97;;;;;;;17.50;87.67;100404.28;6071919;19;20006;-74
2023/07/24 02:17:26;;;;;;;11.10;5.07;;;;;;;17.49;87.75;100406.09;6073471;19;20010;-75
2023/07/24 02:19:32;;;;;;;11.10;4.95;;;;;;;17.52;87.34;100405.03;6073492;19;20024;-76
2023/07/24 02:21:40;;;;;;;11.98;5.38;;;;;;;17.45;87.43;100404.63;6058633;19;20672;-75
2023/07/24 02:23:45;;;;;;;14.98;5.20;;;;;;;17.48;87.40;100395.59;6069522;19;20392;-74
2023/07/24 02:25:53;;;;;;;12.82;5.22;;;;;;;17.48;87.42;100409.75;6072963;19;20007;-76
2023/07/24 02:27:59;;;;;;;11.00;5.93;;;;;;;17.54;87.24;100401.28;6072483;19;20237;-74
2023/07/24 02:30:06;;;;;;;14.57;5.35;;;;;;;17.47;87.39;100402.72;6071519;19;20019;-76
2023/07/24 02:32:11;;;;;;;12.77;6.20;;;;;;;17.46;87.27;100394.88;6077880;19;20378;-76
2023/07/24 02:34:24;;;;;;;14.13;5.50;;;;;;;17.51;87.10;100396.22;6078010;19;20013;-74
2023/07/24 02:36:29;;;;;;;12.43;5.22;;;;;;;17.49;87.15;100389.31;6071086;19;20014;-74
2023/07/24 02:38:36;;;;;;;11.30;5.72;;;;;;;17.49;87.15;100382.19;6070773;19;20003;-74
2023/07/24 02:40:44;;;;;;;12.88;5.10;;;;;;;17.53;86.92;100382.78;6076718;19;20003;-74
2023/07/24 02:42:49;;;;;;;14.30;4.82;;;;;;;17.50;86.97;100381.22;6075171;19;20014;-74
2023/07/24 02:44:54;;;;;;;11.40;5.60;;;;;;;17.46;87.35;100370.97;6073808;19;20011;-74
2023/07/24 02:46:59;;;;;;;12.05;5.20;;;;;;;17.48;86.72;100367.22;6076897;19;20034;-75
2023/07/24 02:49:04;;;;;;;10.90;4.85;;;;;;;17.50;87.20;100372.41;6071800;19;20007;-74
2023/07/24 02:51:13;;;;;;;10.45;5.15;;;;;;;17.50;87.25;100375.91;6075571;19;20538;-75
2023/07/24 02:53:19;;;;;;;13.27;5.15;;;;;;;17.51;87.45;100380.28;6069195;19;20010;-74
2023/07/24 02:55:24;;;;;;;9.95;5.45;;;;;;;17.58;87.78;100385.09;6075138;19;20011;-75
2023/07/24 02:57:30;;;;;;;13.27;5.70;;;;;;;17.51;87.80;100376.78;6078176;19;20010;-75
2023/07/24 02:59:37;;;;;;;9.55;5.43;;;;;;;17.51;88.16;100369.66;6078167;19;20042;-75
2023/07/24 03:01:42;;;;;;;10.88;5.10;;;;;;;17.48;88.27;100377.00;6072379;19;20031;-75
2023/07/24 03:03:44;;;;;;;12.57;5.68;;;;;;;17.45;88.55;100391.34;6073028;19;20038;-76
2023/07/24 03:05:49;;;;;;;11.25;5.25;;;;;;;17.47;88.69;100400.06;6078684;19;20480;-76
2023/07/24 03:07:57;;;;;;;11.98;5.63;;;;;;;17.41;88.68;100391.72;6080069;19;20146;-76
2023/07/24 03:10:03;;;;;;;14.07;5.10;;;;;;;17.46;88.69;100371.81;6078346;19;20024;-74
2023/07/24 03:12:11;;;;;;;11.77;5.13;;;;;;;17.43;88.91;100380.03;6073492;19;20220;-74
2023/07/24 03:14:16;;;;;;;13.45;5.18;;;;;;;17.44;89.13;100388.84;6078539;19;20010;-75
2023/07/24 03:16:21;;;;;;;15.52;5.63;;;;;;;17.44;89.19;100396.81;6074247;19;20031;-75
2023/07/24 03:18:28;;;;;;;10.52;5.18;;;;;;;17.46;89.05;100387.75;6076697;19;20013;-75
2023/07/24 03:20:33;;;;;;;12.25;5.47;;;;;;;17.42;89.37;100383.63;6083034;19;20030;-74
2023/07/24 03:22:40;;;;;;;12.68;5.30;;;;;;;17.44;88.91;100375.56;6082585;19;20497;-74
2023/07/24 03:24:48;;;;;;;11.52;4.85;;;;;;;17.42;89.27;100374.81;6077845;19;20014;-74
2023/07/24 03:26:53;;;;;;;10.82;4.80;;;;;;;17.46;88.78;100387.75;6075987;19;20089;-74
2023/07/24 03:28:59;;;;;;;12.40;5.50;;;;;;;17.43;88.33;100390.66;6079147;19;20564;-74
2023/07/24 03:31:03;;;;;;;11.27;4.90;;;;;;;17.42;88.70;100383.63;6080093;19;20021;-75
2023/07/24 03:33:12;;;;;;;13.48;5.10;;;;;;;17.40;88.93;100379.38;6075832;19;20007;-74
2023/07/24 03:35:17;;;;;;;10.70;4.72;;;;;;;17.39;88.59;100381.22;6079111;19;20014;-75
2023/07/24 03:37:22;;;;;;;11.77;4.65;;;;;;;17.36;89.02;100384.09;6080287;19;20655;-75
2023/07/24 03:39:28;;;;;;;12.00;4.93;;;;;;;17.37;89.05;100385.78;6081171;19;20023;-74
2023/07/24 03:41:36;;;;;;;10.95;4.22;;;;;;;17.38;88.28;100381.31;6079310;19;20288;-75
2023/07/24 03:43:41;;;;;;;11.27;4.35;;;;;;;17.33;88.11;100385.19;6072137;19;20281;-75
2023/07/24 03:45:46;;;;;;;16.65;3.97;;;;;;;17.36;87.34;100370.81;6079833;19;20405;-75
2023/07/24 03:47:51;;;;;;;9.88;4.30;;;;;;;17.38;87.31;100371.56;6073997;19;20206;-76
2023/07/24 03:49:56;;;;;;;11.00;4.57;;;;;;;17.31;86.98;100362.34;6074203;19;20056;-75
2023/07/24 03:52:01;;;;;;;12.02;5.05;;;;;;;17.29;87.32;100357.16;6074752;19;20011;-76
2023/07/24 03:54:06;;;;;;;11.10;4.63;;;;;;;17.26;87.47;100369.81;6075582;19;20017;-74
2023/07/24 03:56:12;;;;;;;11.45;4.18;;;;;;;17.22;87.37;100361.25;6074691;19;20324;-75
2023/07/24 03:58:19;;;;;;;11.88;4.72;;;;;;;17.18;87.74;100364.25;6078709;19;20949;-75
2023/07/24 04:00:25;;;;;;;12.07;4.35;;;;;;;17.13;87.63;100369.91;6053438;19;20097;-74
2023/07/24 04:02:33;;;;;;;13.85;4.38;;;;;;;17.11;87.82;100370.03;6077433;19;20387;-75
2023/07/24 04:04:40;;;;;;;13.25;4.47;;;;;;;17.11;87.53;100370.03;6077355;19;20014;-74
2023/07/24 04:06:46;;;;;;;16.20;4.63;;;;;;;17.04;87.66;100366.13;6068743;19;20009;-75
2023/07/24 04:08:51;;;;;;;11.57;4.90;;;;;;;17.02;87.70;100370.72;6070603;19;20007;-75
2023/07/24 04:10:57;;;;;;;11.68;4.30;;;;;;;17.00;87.71;100375.28;6071856;19;20003;-75
2023/07/24 04:13:03;;;;;;;9.23;4.07;;;;;;;16.98;88.21;100381.66;6073850;19;20669;-74
2023/07/24 04:15:12;;;;;;;12.30;4.30;;;;;;;16.95;88.35;100382.75;6071628;19;20342;-74
2023/07/24 04:17:17;;;;;;;12.35;4.32;;;;;;;17.00;88.26;100375.28;6069661;19;20546;-76
2023/07/24 04:19:22;;;;;;;14.02;4.90;;;;;;;16.96;88.23;100375.66;6080518;19;20388;-74
2023/07/24 04:21:30;;;;;;;9.95;4.82;;;;;;;16.93;88.62;100371.41;6081738;19;20050;-76
2023/07/24 04:23:32;;;;;;;8.88;4.30;;;;;;;16.94;88.67;100378.41;6066247;19;20007;-75
2023/07/24 04:25:37;;;;;;;;;;;;;;;17.02;88.20;100381.34;6069391;19;20332;-75
2023/07/24 04:27:42;;;;;;;10.75;4.35;;;;;;;17.00;88.07;100379.75;6075690;19;19915;-76
2023/07/24 04:29:47;;;;;;;12.48;4.60;;;;;;;17.01;87.84;100378.78;6078890;19;20015;-75
2023/07/24 04:31:52;;;;;;;9.77;4.50;;;;;;;17.01;88.06;100376.13;6076449;19;20511;-74
2023/07/24 04:34:00;;;;;;;14.35;5.00;;;;;;;17.02;88.11;100380.50;6079604;19;20030;-75
2023/07/24 04:36:05;;;;;;;10.23;4.10;;;;;;;17.05;87.90;100385.56;6080967;19;20047;-74
2023/07/24 04:38:11;;;;;;;9.88;4.00;;;;;;;17.06;88.09;100387.25;6076890;19;20014;-75
2023/07/24 04:40:19;;;;;;;10.70;4.22;;;;;;;17.08;88.05;100380.84;6075062;19;20042;-75
2023/07/24 04:42:26;;;;;;;10.93;4.55;;;;;;;17.04;87.81;100379.41;6077211;19;20104;-75
2023/07/24 04:44:31;;;;;;;12.05;4.38;;;;;;;17.13;87.71;100379.69;6074950;19;20019;-75
2023/07/24 04:46:39;;;;;;;10.60;4.47;;;;;;;17.08;87.53;100377.38;6076466;19;20524;-76
2023/07/24 04:48:47;;;;;;;11.07;4.25;;;;;;;17.13;87.54;100382.34;6072938;19;20221;-75
2023/07/24 04:50:58;;;;;;;13.80;4.20;;;;;;;17.14;87.30;100381.38;6076502;19;20035;-74
2023/07/24 04:53:04;;;;;;;12.60;4.38;;;;;;;17.11;87.79;100379.78;6070592;19;20747;-75
2023/07/24 04:55:10;;;;;;;11.30;4.28;;;;;;;17.14;87.35;100371.63;6072582;19;20025;-75
2023/07/24 04:57:15;;;;;;;15.55;5.13;;;;;;;17.15;86.94;100372.44;6067909;19;20015;-75
2023/07/24 04:59:20;;;;;;;11.52;3.78;;;;;;;17.16;87.34;100380.28;6069460;19;20010;-75
2023/07/24 05:01:26;;;;;;;15.73;4.80;;;;;;;17.18;87.10;100380.19;6073401;19;20198;-76
2023/07/24 05:03:33;;;;;;;13.38;4.63;;;;;;;17.18;86.84;100375.72;6080341;19;20019;-76
2023/07/24 05:05:43;;;;;;;12.68;4.60;;;;;;;17.19;86.81;100365.94;6058239;19;20043;-74
2023/07/24 05:07:51;;;;;;;12.30;3.73;;;;;;;17.16;86.59;100374.13;6076912;19;20014;-76
2023/07/24 05:09:56;;;;;;;9.70;3.63;;;;;;;17.18;86.52;100372.22;6080899;19;20034;-74
2023/07/24 05:12:01;;;;;;;10.50;3.80;;;;;;;17.23;86.00;100365.59;6075843;19;20082;-74
2023/07/24 05:14:06;;;;;;;8.90;3.67;;;;;;;17.25;86.08;100365.50;6077662;19;20010;-74
2023/07/24 05:16:16;;;;;;;11.93;4.68;;;;;;;17.27;85.68;100374.16;6078384;19;20022;-74
2023/07/24 05:18:21;;;;;;;12.85;4.32;;;;;;;17.24;85.74;100371.75;6077818;19;20011;-74
2023/07/24 05:20:27;;;;;;;13.13;4.78;;;;;;;17.30;85.65;100368.66;6078497;19;20598;-76
2023/07/24 05:22:38;;;;;;;11.45;4.30;;;;;;;17.26;85.38;100365.34;6067621;19;20234;-75
2023/07/24 05:24:43;;;;;;;10.38;4.35;;;;;;;17.29;84.44;100366.94;6075841;19;20488;-75
2023/07/24 05:26:48;;;;;;;10.70;3.50;;;;;;;17.35;84.30;100374.41;6072119;19;20199;-77
2023/07/24 05:28:53;;;;;;;7.10;2.92;;;;;;;17.33;84.36;100371.06;6077616;19;20010;-75
2023/07/24 05:30:58;;;;;;;9.20;4.28;;;;;;;17.40;84.22;100372.25;6071631;19;20007;-74
2023/07/24 05:33:06;;;;;;;7.40;3.42;;;;;;;17.48;83.56;100367.22;6068096;19;20513;-74
2023/07/24 05:35:11;;;;;;;8.05;2.88;;;;;;;17.70;82.92;100377.03;6073290;19;20190;-75
2023/07/24 05:37:16;;;;;;;8.80;3.45;;;;;;;18.01;81.64;100374.69;6072566;19;20204;-75
2023/07/24 05:39:25;;;;;;;9.75;3.65;;;;;;;17.88;81.68;100366.81;6070917;19;20297;-75
2023/07/24 05:41:30;;;;;;;11.63;3.38;;;;;;;17.91;81.78;100371.88;6073196;19;20757;-74
2023/07/24 05:43:36;;;;;;;8.88;3.40;;;;;;;17.78;81.93;100368.47;6069484;19;20248;-75
2023/07/24 05:45:42;;;;;;;11.05;4.18;;;;;;;17.76;81.74;100375.72;6063495;19;20665;-74
2023/07/24 05:47:47;;;;;;;10.88;4.00;;;;;;;17.65;82.00;100373.03;6071510;19;20010;-76
2023/07/24 05:49:52;;;;;;;12.05;3.55;;;;;;;17.96;81.64;100368.88;6076870;19;20213;-74
2023/07/24 05:51:58;;;;;;;7.50;3.08;;;;;;;18.32;79.74;100370.38;6071493;19;20055;-75
2023/07/24 05:54:03;;;;;;;11.43;4.18;;;;;;;18.76;78.43;100373.94;6072075;19;20287;-75
2023/07/24 05:56:11;;;;;;;12.52;4.63;;;;;;;18.98;76.64;100374.81;6069711;19;20018;-75
2023/07/24 05:58:17;;;;;;;11.23;4.03;;;;;;;19.43;75.81;100370.13;6069133;19;20018;-74
2023/07/24 06:00:22;;;;;;;9.75;4.15;;;;;;;19.22;74.92;100375.47;6067605;19;20010;-75
2023/07/24 06:02:28;;;;;;;11.95;3.55;;;;;;;18.92;75.91;100370.03;6070857;19;20463;-75
2023/07/24 06:04:33;;;;;;;12.07;3.90;;;;;;;18.65;76.72;100373.97;6071983;19;20448;-75
2023/07/24 06:06:41;;;;;;;9.40;3.65;;;;;;;18.67;77.61;100377.34;6068846;19;20061;-73
2023/07/24 06:08:50;;;;;;;8.73;3.35;;;;;;;18.56;77.86;100372.91;6072419;19;20031;-75
2023/07/24 06:10:56;;;;;;;9.05;3.58;;;;;;;18.40;78.16;100378.63;6070801;19;20446;-75
2023/07/24 06:13:04;;;;;;;9.57;3.63;;;;;;;18.41;78.39;100382.97;6069596;19;20010;-76
2023/07/24 06:15:13;;;;;;;8.13;3.38;;;;;;;18.36;78.26;100390.47;6068947;19;20122;-73
2023/07/24 06:17:20;;;;;;;10.88;4.10;;;;;;;18.48;78.57;100390.44;6064897;19;20308;-74
2023/07/24 06:19:25;;;;;;;7.25;3.30;;;;;;;18.58;78.03;100394.88;6068603;19;20104;-74
2023/07/24 06:21:34;;;;;;;9.07;3.50;;;;;;;18.63;78.00;100386.53;6071169;19;20018;-75
2023/07/24 06:23:41;;;;;;;10.00;4.07;;;;;;;18.60;78.24;100389.44;6063915;19;20114;-74
2023/07/24 06:25:46;;;;;;;10.73;3.50;;;;;;;18.59;78.34;100391.28;6066895;19;20013;-74
2023/07/24 06:27:51;;;;;;;10.52;4.03;;;;;;;18.61;78.36;100394.63;6068738;19;20010;-75
2023/07/24 06:29:59;;;;;;;8.95;3.78;;;;;;;18.97;77.35;100395.28;6064605;19;20243;-74
2023/07/24 06:32:19;;;;;;;8.68;3.70;;;;;;;18.95;76.43;100393.72;6060540;19;20010;-75
2023/07/24 06:34:24;;;;;;;9.63;4.65;;;;;;;19.27;76.43;100394.56;6066753;19;20018;-76
2023/07/24 06:36:29;;;;;;;10.05;3.97;;;;;;;19.27;75.75;100397.22;6068350;19;20032;-76
2023/07/24 06:38:35;;;;;;;11.80;3.88;;;;;;;19.52;74.48;100385.31;6064357;19;20119;-76
2023/07/24 06:40:41;;;;;;;10.80;4.00;;;;;;;19.56;74.10;100393.88;6065764;19;20011;-75
2023/07/24 06:42:46;;;;;;;8.82;3.53;;;;;;;19.45;74.99;100402.81;6070791;19;20011;-76
2023/07/24 06:44:52;;;;;;;11.27;3.90;;;;;;;19.63;74.71;100392.41;6068137;19;20257;-75
2023/07/24 06:47:01;;;;;;;10.32;4.05;;;;;;;19.27;74.75;100397.22;6071033;19;20007;-74
2023/07/24 06:49:07;;;;;;;11.20;4.43;;;;;;;19.15;75.57;100411.56;6066210;19;20272;-74
2023/07/24 06:51:12;;;;;;;10.27;4.20;;;;;;;19.36;75.85;100408.09;6068320;19;20322;-74
2023/07/24 06:53:14;;;;;;;13.25;4.10;;;;;;;19.43;74.77;100399.44;6057688;19;20108;-74
2023/07/24 06:55:22;;;;;;;10.88;3.47;;;;;;;19.55;74.78;100400.22;6062468;19;20010;-74
2023/07/24 06:57:28;;;;;;;7.47;3.38;;;;;;;19.74;74.21;100400.34;6066155;19;20014;-74
2023/07/24 06:59:35;;;;;;;8.63;3.53;;;;;;;19.57;75.28;100402.75;6070022;19;20185;-73
2023/07/24 07:01:40;;;;;;;10.27;4.40;;;;;;;19.74;74.52;100404.84;6061163;19;20489;-74
2023/07/24 07:03:48;;;;;;;7.53;3.92;;;;;;;20.11;73.20;100389.13;6068069;19;20007;-75
2023/07/24 07:05:53;;;;;;;9.75;3.67;;;;;;;19.95;73.01;100396.81;6069407;19;20187;-76
2023/07/24 07:07:59;;;;;;;9.40;4.20;;;;;;;19.79;73.66;100389.28;6063804;19;20054;-75
2023/07/24 07:10:05;;;;;;;11.00;3.95;;;;;;;19.88;73.13;100392.97;6070027;19;20002;-75
2023/07/24 07:12:11;;;;;;;10.93;4.13;;;;;;;20.21;72.13;100391.84;6062186;19;20485;-75
2023/07/24 07:14:16;;;;;;;10.35;4.05;;;;;;;20.03;73.11;100393.47;6064029;19;20029;-75
2023/07/24 07:16:21;;;;;;;7.35;4.20;;;;;;;20.46;71.81;100390.53;6059235;19;20313;-75
2023/07/24 07:18:23;;;;;;;8.60;4.00;;;;;;;20.45;70.55;100386.16;6064425;19;20014;-76
2023/07/24 07:20:34;;;;;;;7.78;3.58;;;;;;;20.37;71.51;100386.00;6059154;19;20030;-76
2023/07/24 07:22:41;;;;;;;9.20;3.80;;;;;;;20.42;71.22;100380.25;6059561;19;20030;-76
2023/07/24 07:24:47;;;;;;;13.32;4.90;;;;;;;20.62;69.39;100384.69;6058018;19;20434;-73
2023/07/24 07:26:52;;;;;;;8.07;3.83;;;;;;;20.62;69.16;100390.03;6059419;19;20425;-74
2023/07/24 07:28:59;;;;;;;9.00;3.83;;;;;;;20.59;69.58;100376.97;6062423;19;20634;-74
2023/07/24 07:31:01;;;;;;;7.93;3.38;;;;;;;20.89;68.51;100381.34;6064066;19;20264;-74
2023/07/24 07:33:07;;;;;;;8.25;3.85;;;;;;;21.04;67.65;100377.28;6059738;19;20411;-74
2023/07/24 07:35:12;;;;;;;9.93;3.78;;;;;;;21.02;68.03;100365.88;6064548;19;20014;-76
2023/07/24 07:37:20;;;;;;;8.80;3.88;;;;;;;20.80;68.16;100369.69;6060884;19;20367;-74
2023/07/24 07:39:26;;;;;;;8.57;4.55;;;;;;;20.78;68.34;100366.31;6063005;19;20468;-74
2023/07/24 07:41:30;;;;;;;11.52;3.78;;;;;;;20.74;69.17;100364.03;6062980;19;20266;-75
2023/07/24 07:43:37;;;;;;;9.70;4.03;;;;;;;20.61;69.28;100359.81;6059553;19;20006;-74
2023/07/24 07:45:42;;;;;;;8.57;3.70;;;;;;;20.82;69.21;100366.84;6057992;19;20352;-73
2023/07/24 07:47:45;;;;;;;7.05;3.55;;;;;;;20.92;69.83;100365.03;6070695;19;20014;-74
2023/07/24 07:49:50;;;;;;;12.35;4.07;;;;;;;20.55;70.67;100367.53;6065365;19;20465;-75
2023/07/24 07:51:55;;;;;;;11.95;3.83;;;;;;;20.50;71.50;100362.56;6064503;19;20307;-75
2023/07/24 07:54:07;;;;;;;6.10;3.53;;;;;;;20.74;71.01;100374.72;6059974;19;20552;-73
2023/07/24 07:56:12;;;;;;;7.90;3.53;;;;;;;20.61;71.26;100375.81;6066275;19;20434;-76
2023/07/24 07:58:18;;;;;;;8.95;3.85;;;;;;;20.69;70.57;100380.47;6062712;19;20002;-74
2023/07/24 08:00:23;;;;;;;8.43;3.60;;;;;;;20.38;70.21;100377.03;6062361;19;20013;-73
2023/07/24 08:02:32;;;;;;;11.25;4.00;;;;;;;20.68;69.46;100378.78;6060092;19;20007;-74
2023/07/24 08:04:38;;;;;;;9.30;3.88;;;;;;;20.61;69.10;100377.66;6065528;19;20732;-75
2023/07/24 08:06:43;;;;;;;9.38;3.50;;;;;;;20.75;68.92;100382.59;6067821;19;20737;-75
2023/07/24 08:08:49;;;;;;;8.88;4.22;;;;;;;20.64;68.78;100385.38;6061508;19;20596;-74
2023/07/24 08:10:59;;;;;;;8.20;3.67;;;;;;;20.73;67.94;100373.88;6065003;19;20010;-73
2023/07/24 08:13:07;;;;;;;10.70;4.25;;;;;;;21.47;66.27;100373.31;6064330;19;20009;-74
2023/07/24 08:15:13;;;;;;;8.07;3.67;;;;;;;21.58;65.71;100368.78;6057892;19;20275;-74
2023/07/24 08:17:18;;;;;;;8.48;3.22;;;;;;;21.21;65.88;100370.34;6070994;19;20523;-76
2023/07/24 08:19:27;;;;;;;8.45;3.15;;;;;;;20.96;66.65;100373.63;6060884;19;20208;-74
2023/07/24 08:21:42;;;;;;;4.97;3.50;;;;;;;20.88;66.39;100376.13;6060567;19;20439;-74
2023/07/24 08:23:50;;;;;;;9.52;3.35;;;;;;;20.61;66.95;100373.16;6066508;19;20471;-75
2023/07/24 08:25:58;;;;;;;7.00;3.42;;;;;;;20.63;66.76;100375.69;6064600;19;20011;-75
2023/07/24 08:28:04;;;;;;;6.00;3.58;;;;;;;20.36;68.14;100381.66;6063674;19;20615;-75
2023/07/24 08:30:11;;;;;;;9.00;3.70;;;;;;;20.22;68.93;100382.03;6068303;19;20347;-74
2023/07/24 08:32:16;;;;;;;7.70;3.88;;;;;;;20.51;68.10;100377.63;6063003;19;20048;-75
2023/07/24 08:34:21;;;;;;;7.90;3.58;;;;;;;20.50;67.82;100375.91;6069117;19;20006;-74
2023/07/24 08:36:30;;;;;;;9.20;3.78;;;;;;;20.67;67.45;100370.91;6071478;19;20017;-75
2023/07/24 08:38:37;;;;;;;7.35;3.03;;;;;;;20.92;67.39;100369.53;6071148;19;20022;-76
2023/07/24 08:40:44;;;;;;;9.57;3.80;;;;;;;20.79;66.95;100378.66;6070839;19;20236;-73
2023/07/24 08:42:53;;;;;;;8.43;3.72;;;;;;;21.01;66.63;100377.56;6075988;19;20035;-74
2023/07/24 08:44:57;;;;;;;10.10;3.78;;;;;;;21.25;67.22;100371.78;6085703;19;20503;-75
2023/07/24 08:47:06;;;;;;;9.30;4.15;;;;;;;21.09;67.40;100376.84;6078477;19;20413;-73
2023/07/24 08:49:14;;;;;;;10.15;3.65;;;;;;;21.02;67.41;100367.72;6072878;19;20007;-74
2023/07/24 08:51:21;;;;;;;8.48;4.18;;;;;;;20.67;67.63;100373.56;6077760;19;20301;-73
2023/07/24 08:53:32;;;;;;;10.48;3.35;;;;;;;20.87;66.60;100364.59;6068156;19;20007;-73
2023/07/24 08:55:41;;;;;;;7.18;3.83;;;;;;;20.89;66.62;100354.63;6067918;19;20054;-73
2023/07/24 08:57:47;;;;;;;9.65;3.72;;;;;;;21.02;66.85;100360.53;6071102;19;20217;-74
2023/07/24 08:59:55;;;;;;;8.98;3.42;;;;;;;21.45;65.83;100353.88;6067280;19;20483;-74
2023/07/24 09:02:03;;;;;;;6.57;4.00;;;;;;;21.24;65.82;100355.88;6066777;19;20007;-74
2023/07/24 09:04:08;;;;;;;7.93;4.00;;;;;;;21.17;65.54;100354.75;6073434;19;20010;-73
2023/07/24 09:06:14;;;;;;;7.90;3.63;;;;;;;21.23;66.45;100352.34;6070914;19;20015;-75
2023/07/24 09:08:19;;;;;;;9.25;3.47;;;;;;;21.19;65.14;100344.75;6070600;19;20010;-73
2023/07/24 09:10:28;;;;;;;8.65;3.00;;;;;;;21.05;64.93;100351.41;6068917;19;20015;-73
2023/07/24 09:12:33;;;;;;;5.93;3.03;;;;;;;21.51;64.39;100348.94;6069252;19;20320;-74
2023/07/24 09:14:45;;;;;;;10.63;3.45;;;;;;;22.52;62.15;100347.25;6072250;19;20006;-75
2023/07/24 09:17:05;;;;;;;8.50;3.50;;;;;;;22.28;63.80;100348.66;6071172;19;20483;-71
2023/07/24 09:19:17;;;;;;;7.40;3.92;;;;;;;22.61;62.59;100340.13;6067084;19;20629;-72
2023/07/24 09:21:36;;;;;;;7.00;3.85;;;;;;;22.37;63.56;100346.06;6066967;19;20011;-72
2023/07/24 09:23:43;;;;;;;11.15;4.05;;;;;;;22.74;62.33;100333.38;6058751;19;20014;-72
2023/07/24 09:25:48;;;;;;;11.65;3.97;;;;;;;23.37;60.84;100336.94;6065344;19;20740;-72
2023/07/24 09:27:54;;;;;;;9.23;3.45;;;;;;;23.12;60.66;100335.94;6059354;19;20054;-71
2023/07/24 09:29:59;;;;;;;6.65;3.22;;;;;;;23.21;60.33;100325.09;6058683;19;20018;-71
2023/07/24 09:32:08;;;;;;;11.52;3.78;;;;;;;23.63;59.29;100334.25;6064968;19;20011;-71
2023/07/24 09:34:15;;;;;;;6.43;3.45;;;;;;;23.47;58.96;100343.06;6064390;19;20006;-72
2023/07/24 09:36:20;;;;;;;9.50;3.30;;;;;;;23.15;60.91;100347.19;6063429;19;20633;-72
2023/07/24 09:38:25;;;;;;;8.27;3.65;;;;;;;22.96;60.91;100350.00;6062385;19;20506;-72
2023/07/24 09:40:40;;;;;;;6.80;3.47;;;;;;;22.65;61.56;100347.72;6056894;19;20329;-72
2023/07/24 09:42:47;;;;;;;6.97;3.50;;;;;;;22.70;60.96;100347.28;6060389;19;20042;-71
2023/07/24 09:45:12;;;;;;;8.40;3.88;;;;;;;22.39;61.52;100347.63;6061129;19;20089;-71
2023/07/24 09:47:21;;;;;;;8.15;3.67;;;;;;;22.20;61.97;100345.06;6061601;19;20265;-73